createdAt,value
2019-02-20T00:08:39.779Z,7.00
2019-02-20T00:13:44.623Z,7.00
2019-02-20T00:44:34.389Z,7.60
2019-02-20T00:59:50.925Z,6.40
2019-02-20T01:04:55.662Z,6.80
2019-02-20T01:15:04.887Z,7.30
2019-02-20T01:20:09.875Z,7.50
2019-02-20T01:25:15.402Z,7.50
2019-02-20T01:30:20.170Z,7.40
2019-02-20T01:45:33.285Z,7.60
2019-02-20T01:55:42.111Z,7.50
2019-02-20T02:00:48.426Z,7.80
2019-02-20T02:16:01.289Z,7.10
2019-02-20T02:21:06.071Z,7.10
2019-02-20T02:51:32.441Z,6.90
2019-02-20T03:06:52.624Z,6.50
2019-02-20T03:11:57.298Z,6.60
2019-02-20T03:32:14.658Z,6.00
2019-02-20T04:07:44.920Z,6.90
2019-02-20T04:28:02.020Z,6.50
2019-02-20T04:58:27.668Z,6.30
2019-02-20T05:03:32.378Z,6.50
2019-02-20T05:08:37.138Z,6.30
2019-02-20T05:23:50.684Z,6.10
2019-02-20T05:39:04.799Z,6.40
2019-02-20T05:54:20.802Z,5.80
2019-02-20T06:04:29.685Z,6.50
2019-02-20T06:14:42.582Z,6.50
2019-02-20T06:35:03.190Z,5.90
2019-02-20T06:45:12.541Z,5.80
2019-02-20T07:47:43.828Z,6.20
2019-02-20T07:57:54.886Z,6.80
2019-02-20T08:02:59.729Z,7.50
2019-02-20T08:28:22.837Z,8.00
2019-02-20T09:09:06.309Z,8.80
2019-02-20T09:24:19.419Z,9.30
2019-02-20T09:29:24.218Z,9.90
2019-02-20T09:34:29.103Z,10.60
2019-02-20T09:39:35.709Z,10.90
2019-02-20T09:44:43.728Z,9.90
2019-02-20T09:49:48.662Z,10.90
2019-02-20T09:54:55.740Z,10.90
2019-02-20T10:05:04.836Z,10.90
2019-02-20T10:10:09.906Z,11.30
2019-02-20T10:15:15.076Z,11.70
2019-02-20T10:20:19.992Z,12.20
2019-02-20T10:25:25.043Z,12.50
2019-02-20T10:30:29.972Z,11.60
2019-02-20T10:35:34.815Z,12.30
2019-02-20T10:40:39.549Z,12.70
2019-02-20T10:45:45.756Z,13.40
2019-02-20T10:50:50.528Z,13.30
2019-02-20T10:55:55.365Z,13.90
2019-02-20T11:01:00.207Z,13.60
2019-02-20T11:06:05.211Z,12.60
2019-02-20T11:11:10.095Z,12.70
2019-02-20T11:16:14.967Z,12.50
2019-02-20T11:21:20.019Z,12.60
2019-02-20T11:26:25.244Z,12.70
2019-02-20T11:31:30.102Z,12.90
2019-02-20T11:36:34.932Z,13.20
2019-02-20T11:41:40.807Z,14.10
2019-02-20T11:46:45.509Z,13.30
2019-02-20T11:51:50.344Z,13.70
2019-02-20T11:56:55.291Z,14.20
2019-02-20T12:02:00.179Z,14.30
2019-02-20T12:07:05.047Z,13.80
2019-02-20T12:12:09.855Z,14.20
2019-02-20T12:17:14.802Z,14.50
2019-02-20T12:22:19.489Z,14.80
2019-02-20T12:27:24.392Z,14.80
2019-02-20T12:32:30.898Z,15.20
2019-02-20T12:37:35.786Z,15.30
2019-02-20T12:42:41.942Z,14.60
2019-02-20T12:47:47.097Z,15.30
2019-02-20T12:52:51.967Z,15.10
2019-02-20T12:57:56.803Z,15.20
2019-02-20T13:03:01.592Z,15.60
2019-02-20T13:08:06.441Z,15.20
2019-02-20T13:13:11.182Z,15.40
2019-02-20T13:18:19.156Z,16.00
2019-02-20T13:23:24.037Z,16.50
2019-02-20T13:28:29.105Z,15.80
2019-02-20T13:33:34.050Z,15.70
2019-02-20T13:38:40.213Z,14.30
2019-02-20T13:48:49.565Z,14.30
2019-02-20T13:53:54.519Z,14.90
2019-02-20T13:58:59.435Z,15.80
2019-02-20T14:04:04.425Z,15.70
2019-02-20T14:09:09.774Z,16.00
2019-02-20T14:14:14.554Z,15.70
2019-02-20T14:19:19.445Z,16.00
2019-02-20T14:24:24.383Z,15.90
2019-02-20T14:29:29.316Z,15.40
2019-02-20T14:34:34.158Z,15.40
2019-02-20T14:39:39.034Z,14.90
2019-02-20T14:44:43.873Z,14.70
2019-02-20T14:49:49.060Z,15.50
2019-02-20T14:54:54.000Z,14.40
2019-02-20T14:59:59.016Z,14.00
2019-02-20T15:05:05.294Z,13.50
2019-02-20T15:10:10.664Z,13.50
2019-02-20T15:15:15.651Z,13.40
2019-02-20T15:20:20.754Z,13.40
2019-02-20T15:25:25.674Z,13.30
2019-02-20T15:35:35.058Z,13.00
2019-02-20T15:40:40.112Z,13.00
2019-02-20T15:45:45.002Z,12.80
2019-02-20T15:55:54.302Z,12.80
2019-02-20T16:00:59.316Z,12.60
2019-02-20T16:06:04.285Z,12.40
2019-02-20T16:11:09.203Z,12.20
2019-02-20T16:16:14.390Z,12.10
2019-02-20T16:21:19.396Z,12.30
2019-02-20T16:26:25.270Z,12.10
2019-02-20T16:51:48.235Z,11.40
2019-02-20T16:56:52.997Z,11.60
2019-02-20T17:01:57.853Z,11.60
2019-02-20T17:07:02.699Z,11.50
2019-02-20T17:12:08.606Z,11.50
2019-02-20T17:17:13.610Z,11.40
2019-02-20T17:22:18.430Z,11.30
2019-02-20T17:27:23.642Z,11.30
2019-02-20T17:32:28.579Z,11.40
2019-02-20T17:37:33.424Z,11.60
2019-02-20T17:42:38.264Z,11.60
2019-02-20T17:47:43.426Z,11.30
2019-02-20T17:52:48.333Z,11.30
2019-02-20T17:57:54.963Z,11.40
2019-02-20T18:02:59.961Z,11.20
2019-02-20T18:08:04.998Z,11.20
2019-02-20T18:13:10.096Z,11.00
2019-02-20T18:18:14.956Z,10.80
2019-02-20T18:28:26.569Z,10.70
2019-02-20T18:33:31.517Z,10.60
2019-02-20T18:43:49.786Z,10.60
2019-02-20T18:48:54.568Z,10.30
2019-02-20T19:31:02.720Z,9.70
2019-02-20T19:47:07.406Z,10.00
2019-02-20T20:13:40.790Z,9.30
2019-02-20T20:46:25.510Z,9.10
2019-02-20T21:24:01.650Z,9.10
2019-02-20T21:39:55.921Z,9.10
2019-02-20T21:57:14.742Z,9.00
2019-02-20T22:02:45.493Z,9.00
2019-02-20T22:30:02.782Z,8.60
2019-02-20T23:45:38.634Z,7.10
2019-02-20T23:55:47.909Z,7.10
